Tiempo atmosférico en la estación meteorológica de Colmenar Viejo, Madrid (1004 m.)

Fecha
DESCASC
Temp. máxima en grados centígrados (hora)
DESCASC
Temp. mínima en grados centígrados (hora)
DESCASC
Temp. media en grados centígrados
DESCASC
Racha de viento máxima en m/sg (hora)
DESCASC
Velocidad máxima media en intervalos de 10 minutos(hora)
DESCASC
Precipitaciones diarias en mm
DESCASC
Precipitaciones de 00:00 a 06:00 en mm
DESCASC
Precipitaciones de 06:00 a 12:00 en mm
DESCASC
Precipitaciones de 12:00 a 18:00 en mm
DESCASC
Precipitaciones de 18:00 a 24:00 en mm
DESCASC
17-09-2017 21.1 (18:00) 7.8 (07:10) 14.5 9.44 (14:50) 4.44 (15:20) 0 0 0 0 0
16-09-2017 17.2 (16:00) 5.9 (06:20) 11.6 8.33 (01:10) 5.83 (01:10) 0 0 0 0 0
15-09-2017 19.6 (14:20) 11.1 (23:59) 15.4 10.56 (12:30) 6.11 (23:40) 0 0 0 0 0
14-09-2017 27.3 (16:00) 16.1 (00:00) 21.7 9.72 (17:40) 5.28 (17:40) 0 0 0 0 0
13-09-2017 27.3 (16:40) 14.1 (00:00) 20.7 9.17 (22:40) 4.17 (17:30) 0 0 0 0 0
12-09-2017 24.4 (17:40) 13.7 (00:00) 19 8.89 (15:50) 3.06 (00:10) 0 0 0 0 0
11-09-2017 26 (16:30) 14 (00:00) 20 11.67 (22:40) 5.83 (22:40) 0 0 0 0 0
10-09-2017 21.5 (17:40) 9.3 (00:00) 15.4 10 (08:50) 5.83 (08:50) 0 0 0 0 0
09-09-2017 20 (17:00) 13.4 (00:00) 16.7 12.5 (17:50) 6.11 (22:40) 0 0 0 0 0
08-09-2017 27.9 (16:30) 14.6 (00:00) 21.3 9.17 (15:40) 4.17 (16:00) 0 0 0 0 0
07-09-2017 28.1 (16:30) 14.2 (00:00) 21.2 8.89 (00:10) 6.11 (00:10) 0 0 0 0 0
06-09-2017 29.9 (16:10) 17.8 (00:00) 23.8 12.22 (23:50) 6.39 (23:59) 0 0 0 0 0
05-09-2017 28.8 (17:30) 15.4 (00:00) 22.1 8.89 (13:50) 3.06 (14:50) 0 0 0 0 0
04-09-2017 26.5 (17:10) 15.3 (00:00) 20.9 9.44 (02:10) 5.28 (02:00) 0 0 0 0 0
03-09-2017 29 (17:40) 15.8 (00:00) 22.4 10 (16:00) 4.44 (16:00) 0 0 0 0 0
02-09-2017 24.7 (18:30) 8.2 (00:00) 16.5 10 (00:50) 4.72 (04:20) 0 0 0 0 0
01-09-2017 25.2 (16:50) 13.6 (00:00) 19.4 10.28 (12:50) 5.28 (09:30) 0 0 0 0 0
31-08-2017 23.5 (15:40) 14.1 (00:00) 18.8 8.61 (02:30) 4.44 (02:20) 0.6 0.5 0.1 0 0
30-08-2017 23.4 (16:20) 14.1 (00:00) 18.8 8.89 (15:40) 3.89 (17:10) 0 0 0 0 0
29-08-2017 22.8 (17:10) 13.2 (00:00) 18 10.83 (22:30) 5.28 (01:20) 0 0 0 0 0
28-08-2017 19.2 (02:20) 13.1 (00:00) 16.2 12.22 (15:00) 5.83 (15:00) 13.5 0 3.4 8.7 1.4
27-08-2017 23.3 (18:30) 16.4 (00:00) 19.8 9.44 (19:00) 6.39 (18:50) 2.4 0 0.6 1.8 0
26-08-2017 26.9 (16:10) 19.6 (00:00) 23.3 11.67 (16:10) 5.28 (23:30) 0 0 0 0 0
25-08-2017 30.5 (16:10) 17.9 (00:00) 24.2 11.67 (16:20) 6.39 (17:30) 0 0 0 0 0
24-08-2017 31 (15:40) 20 (00:00) 25.5 11.67 (16:40) 6.94 (02:30) 0 0 0 0 0
23-08-2017 32.8 (16:00) 21.6 (00:00) 27.2 10.56 (12:30) 4.17 (14:40) 0 0 0 0 0
22-08-2017 33.3 (16:50) 19.9 (00:00) 26.6 9.72 (17:20) 5 (17:20) 0 0 0 0 0

Gráficas

Temp. máximas Temp. mínimas Temp. medias Precipitaciones Rachas de viento máximas Velocidades máximas media en intervalos de 10 minutos

Datos horarios

Fecha y hora oficial Temperatura (ºC) Velocidad del viento (km/h) Dirección del viento Racha (km/h) Dirección de racha Precipitación (mm) Presión (hPa) Tendencia (hPa) Humedad (%)
2017-09-20 23:00:00 17.7 5 Noroeste 8 Noroeste 0 904.9 0.1 36
2017-09-20 22:00:00 18.5 6 Noroeste 8 Noroeste 0 905 0.1 34
2017-09-20 21:00:00 19.9 4 Sudoeste 19 Sudeste 0 904.9 0.1 33
2017-09-20 20:00:00 21.8 5 Sur 15 Sur 0 904.8 -0.5 30
2017-09-20 19:00:00 23.6 10 Sudeste 20 Sudeste 0 904.9 -1 29
2017-09-20 18:00:00 24.8 8 Sur 23 Sudeste 0 904.8 -1.6 28
2017-09-20 17:00:00 24.6 12 Sur 26 Sur 0 905.3 -1.7 29
2017-09-20 16:00:00 24.5 8 Sur 20 Sur 0 905.9 -1.7 30
2017-09-20 15:00:00 23.7 4 Sur 19 Sudeste 0 906.4 -1.7 30
2017-09-20 14:00:00 22.7 5 Sur 18 Sur 0 907 -1.1 30
2017-09-20 13:00:00 21.1 5 Sur 38 Sur 0 907.6 -0.6 31
2017-09-20 12:00:00 19.7 8 Sudeste 38 Sur 0 908.1 0.2 32
2017-09-20 11:00:00 19 6 Sudeste 15 Sudeste 0 908.1 0.3 34
2017-09-20 10:00:00 16.6 5 Sudeste 15 Este 0 908.2 0.6 39
2017-09-20 09:00:00 13.8 2 Sudeste 10 Este 0 907.9 0.3 45
2017-09-20 08:00:00 10.6 5 Noroeste 7 Noroeste 0 907.8 0.1 48
2017-09-20 07:00:00 12.3 3 Este 6 Nordeste 0 907.6 -0.5 45
2017-09-20 06:00:00 12.2 4 Nordeste 8 Nordeste 0 907.6 -0.4 46
2017-09-20 05:00:00 12.3 4 Noroeste 6 Noroeste 0 907.7 -0.4 46
2017-09-20 04:00:00 13.1 3 Sudoeste 6 Sudoeste 0 908.1 -0.2 45
2017-09-20 03:00:00 13.3 4 Noroeste 7 Noroeste 0 908 -0.5 45
2017-09-20 02:00:00 13.5 4 Noroeste 8 Noroeste 0 908.1 -0.3 44
2017-09-20 01:00:00 14.6 5 Noroeste 7 Noroeste 0 908.3 0.1 42
2017-09-20 00:00:00 15.4 5 Sudoeste 9 Sudoeste 0 908.5 0.6 39
2017-09-19 23:00:00 17.5 0 Calma 8 Nordeste 0 908.4 0.7 38
2017-09-19 22:00:00 18.3 5 Nordeste 13 Nordeste 0 908.2 0.8 35
2017-09-19 21:00:00 18.4 5 Nordeste 12 Nordeste 0 907.9 0.5 36
2017-09-19 20:00:00 20.6 10 Este 17 Este 0 907.7 0.2 34
2017-09-19 19:00:00 22.6 10 Este 24 Este 0 907.4 -0.6 36
2017-09-19 18:00:00 23.9 7 Sur 16 Sur 0 907.4 -1.1 34
2017-09-19 17:00:00 23 7 Sudeste 21 Sudeste 0 907.5 -1.9 37
2017-09-19 16:00:00 22.9 8 Sur 17 Sur 0 908 -1.7 39
2017-09-19 15:00:00 21.7 5 Sudeste 18 Sur 0 908.5 -1.5 41
2017-09-19 14:00:00 20.9 4 Sur 16 Sur 0 909.4 -0.2 43
2017-09-19 13:00:00 19.5 7 Sudeste 15 Sudeste 0 909.7 0.6 46
2017-09-19 12:00:00 17.7 6 Sur 17 Sudeste 0 910 1.2 49
2017-09-19 11:00:00 16.6 5 Sur 12 Sur 0 909.6 1.2 51
2017-09-19 10:00:00 14.7 4 Sur 8 Sudoeste 0 909.1 0.8 55
2017-09-19 09:00:00 11.9 2 Noroeste 4 Oeste 0 908.8 0.5 60
2017-09-19 08:00:00 10.8 3 Sudoeste 5 Este 0 908.4 0.3 60
2017-09-19 07:00:00 11.1 3 Sudeste 9 Este 0 908.3 -0.1 58
2017-09-19 06:00:00 12.1 6 Noroeste 9 Norte 0 908.3 -0.1 54
2017-09-19 05:00:00 12.5 6 Noroeste 8 Noroeste 0 908.1 -0.2 55
2017-09-19 04:00:00 12.1 5 Noroeste 10 Noroeste 0 908.4 0 55
2017-09-19 03:00:00 12.9 0 Calma 11 Nordeste 0 908.4 0.1 53
2017-09-19 02:00:00 13.6 3 Nordeste 8 Norte 0 908.3 -0.1 51
2017-09-19 01:00:00 14 3 Nordeste 6 Sur 0 908.4 0.4 48
2017-09-19 00:00:00 13.8 0 Calma 7 Oeste 0 908.3 1.1 48
2017-09-18 23:00:00 14.1 4 Noroeste 37 Sudeste 0 908.4 1.5 47
2017-09-18 22:00:00 15.9 6 Nordeste 21 Este 0 908 1.5 44
2017-09-18 21:00:00 16.1 4 Nordeste 14 Noroeste 0 907.2 1.2 42
2017-09-18 20:00:00 17.3 8 Noroeste 33 Noroeste 0 906.9 1.2 41
2017-09-18 19:00:00 18.5 13 Norte 27 Norte 0 906.5 0.7 39
2017-09-18 18:00:00 19.8 8 Noroeste 30 Sur 0 906 0.2 39
2017-09-18 17:00:00 19.3 15 Oeste 33 Oeste 0 905.7 0.2 39
2017-09-18 16:00:00 18.8 15 Oeste 35 Oeste 0 905.8 0.2 41
2017-09-18 15:00:00 19.1 13 Oeste 40 Oeste 0 905.8 0.2 41
2017-09-18 14:00:00 18.9 17 Oeste 38 Oeste 0 905.5 0 40
2017-09-18 13:00:00 19.5 3 Norte 14 Norte 0 905.6 0.8 42
2017-09-18 12:00:00 17.9 3 Sur 20 Este 0 905.6 1.3 41
2017-09-18 11:00:00 16.8 4 Sudeste 19 Este 0 905.5 1.6 41
2017-09-18 10:00:00 14.4 5 Sur 10 Sur 0 904.8 1.4 42
2017-09-18 09:00:00 11.3 2 Noroeste 15 Este 0 904.3 0.9 45
2017-09-18 08:00:00 11.9 10 Este 17 Este 0 903.9 0.4 42
2017-09-18 07:00:00 12.6 8 Este 15 Sudeste 0 903.4 -0.2 40
2017-09-18 06:00:00 12 8 Nordeste 13 Este 0 903.4 -0.4 40
2017-09-18 05:00:00 12 5 Este 10 Este 0 903.5 -0.4 40
2017-09-18 04:00:00 11.9 4 Norte 14 Este 0 903.6 -0.5 40
2017-09-18 03:00:00 12.7 0 Calma 12 Sudoeste 0 903.8 -0.8 40
2017-09-18 02:00:00 13.5 7 Sur 26 Oeste 0 903.9 -0.7 38
2017-09-18 01:00:00 14.6 12 Oeste 20 Oeste 0 904.1 -0.3 37
2017-09-18 00:00:00 14.3 5 Noroeste 15 Oeste 0 904.6 0.7 37
2017-09-17 23:00:00 14.7 8 Oeste 13 Oeste 0 904.6 1 35
2017-09-17 22:00:00 15 5 Oeste 9 Oeste 0 904.4 0.9 35
2017-09-17 21:00:00 16.2 5 Oeste 18 Oeste 0 903.9 0.5 33
2017-09-17 20:00:00 19 10 Oeste 21 Oeste 0 903.6 -0.1 31
2017-09-17 19:00:00 19.5 10 Oeste 22 Sudoeste 0 903.5 -0.4 33
2017-09-17 18:00:00 21.1 10 Sudoeste 27 Sudoeste 0 903.4 -0.7 32
2017-09-17 17:00:00 20.2 11 Sudoeste 30 Sur 0 903.7 -0.9 32
2017-09-17 16:00:00 19.6 13 Sudoeste 32 Sudoeste 0 903.9 -1.2 33
2017-09-17 15:00:00 19 14 Sudoeste 34 Sudoeste 0 904.1 -1.1 33
2017-09-17 14:00:00 19.4 12 Sudoeste 26 Sudoeste 0 904.6 -0.6 35
2017-09-17 13:00:00 17.7 12 Sur 22 Sur 0 905.1 0.1 37
2017-09-17 12:00:00 15.4 10 Sur 20 Sur 0 905.2 0.7 41
2017-09-17 11:00:00 15.5 6 Sur 12 Sudoeste 0 905.2 1 42
2017-09-17 10:00:00 13.7 5 Sur 11 Sur 0 905 1.2 44
2017-09-17 09:00:00 10.2 0 Calma 5 Nordeste 0 904.5 0.9 49
2017-09-17 08:00:00 8.1 3 Nordeste 6 Noroeste 0 904.2 0.4 53
2017-09-17 07:00:00 7.9 2 Norte 6 Noroeste 0 903.8 0.1 53
2017-09-17 06:00:00 8.4 4 Oeste 5 Oeste 0 903.6 0 49
2017-09-17 05:00:00 9 3 Oeste 5 Sudoeste 0 903.8 0 49
2017-09-17 04:00:00 8.8 0 Calma 6 Noroeste 0 903.7 -0.1 48
2017-09-17 03:00:00 9 4 Noroeste 6 Noroeste 0 903.6 -0.1 47
2017-09-17 02:00:00 10.2 3 Sur 7 Sur 0 903.8 0.2 45
2017-09-17 01:00:00 10.5 4 Sudeste 8 Este 0 903.8 0.5 44
2017-09-17 00:00:00 11 3 Nordeste 11 Nordeste 0 903.7 1 44
2017-09-16 23:00:00 10.9 4 Nordeste 15 Noroeste 0 903.6 1.3 43
2017-09-16 22:00:00 11.9 9 Norte 18 Norte 0 903.3 1.1 41
2017-09-16 21:00:00 12.4 7 Norte 14 Nordeste 0 902.7 1 38
2017-09-16 20:00:00 14.2 5 Noroeste 24 Oeste 0 902.3 0.7 37
2017-09-16 19:00:00 15.5 10 Oeste 26 Oeste 0 902.2 0.8 35
2017-09-16 18:00:00 16.2 10 Oeste 26 Oeste 0 901.7 0.2 35
2017-09-16 17:00:00 16.7 9 Oeste 28 Noroeste 0 901.6 -0.4 35
2017-09-16 16:00:00 16.6 11 Oeste 28 Oeste 0 901.4 -0.6 35
2017-09-16 15:00:00 16.8 13 Oeste 27 Oeste 0 901.5 -0.8 37
2017-09-16 14:00:00 14.2 7 Oeste 17 Noroeste 0 902 -0.5 44
2017-09-16 13:00:00 15.7 3 Noroeste 17 Sur 0 902 -0.1 45
2017-09-16 12:00:00 13.8 4 Sudoeste 14 Sur 0 902.3 0.6 51
2017-09-16 11:00:00 13 4 Sudeste 10 Sudeste 0 902.5 1.3 55
2017-09-16 10:00:00 10 3 Sudeste 8 Sudeste 0 902.1 1.2 62
2017-09-16 09:00:00 7.4 4 Nordeste 8 Nordeste 0 901.7 0.5 68
2017-09-16 08:00:00 6.1 2 Oeste 18 Nordeste 0 901.2 0 70
2017-09-16 07:00:00 6.5 11 Este 16 Nordeste 0 900.9 -0.5 69
2017-09-16 06:00:00 6.2 4 Norte 17 Este 0 901.2 -0.3 69
2017-09-16 05:00:00 6.4 11 Este 15 Este 0 901.2 -0.5 68
2017-09-16 04:00:00 8 6 Nordeste 15 Norte 0 901.4 -0.3 60
2017-09-16 03:00:00 8.7 5 Nordeste 23 Este 0 901.5 0 60
2017-09-16 02:00:00 9.3 17 Nordeste 30 Nordeste 0 901.7 0.1 59
2017-09-16 01:00:00 9.9 19 Este 29 Nordeste 0 901.7 0.5 56
2017-09-16 00:00:00 11.1 22 Este 33 Este 0 901.5 0.7 51
2017-09-15 23:00:00 11.4 17 Este 27 Norte 0 901.6 1.2 48
2017-09-15 22:00:00 12.2 14 Norte 37 Nordeste 0 901.2 1.2 45
2017-09-15 21:00:00 12.8 15 Norte 34 Norte 0 900.8 1 44
2017-09-15 20:00:00 14.5 14 Norte 36 Norte 0 900.4 0.6 39
2017-09-15 19:00:00 16.7 18 Noroeste 33 Norte 0 900 0.1 37
2017-09-15 18:00:00 16.9 15 Noroeste 31 Noroeste 0 899.8 -0.2 37
2017-09-15 17:00:00 17.2 14 Noroeste 29 Noroeste 0 899.8 -0.5 39
2017-09-15 16:00:00 17.8 7 Sudoeste 34 Este 0 899.9 -0.7 42
2017-09-15 15:00:00 18.2 17 Nordeste 35 Este 0 900 -0.8 42
2017-09-15 14:00:00 18.4 10 Nordeste 32 Nordeste 0 900.3 -0.7 45
2017-09-15 13:00:00 16.7 13 Nordeste 38 Este 0 900.6 0 47
2017-09-15 12:00:00 16.9 14 Nordeste 30 Nordeste 0 900.8 0.3 50
2017-09-15 11:00:00 15.9 17 Nordeste 29 Nordeste 0 901 0.7 54
2017-09-15 10:00:00 13.7 11 Este 26 Este 0 900.6 0.3 61
2017-09-15 09:00:00 11.8 4 Sudoeste 8 Oeste 0 900.5 0 66
2017-09-15 08:00:00 11.7 2 Este 23 Este 0 900.3 -0.4 64
2017-09-15 07:00:00 12.4 4 Oeste 26 Este 0 900.3 -0.8 63
2017-09-15 06:00:00 13 12 Este 28 Este 0 900.5 -1.3 63
2017-09-15 05:00:00 12.8 5 Este 19 Este 0 900.7 -1.5 64
2017-09-15 04:00:00 12.4 4 Oeste 7 Oeste 0 901.1 -1.5 63
2017-09-15 03:00:00 13.6 0 Calma 6 Noroeste 0 901.8 -0.9 61
2017-09-15 02:00:00 14.1 3 Sudoeste 10 Sudoeste 0 902.2 -0.6 58
2017-09-15 01:00:00 15.3 2 Este 18 Nordeste 0 902.6 -0.3 54
2017-09-15 00:00:00 16.7 14 Nordeste 26 Este 0 902.7 -0.1 51
2017-09-14 23:00:00 17.2 17 Este 32 Nordeste 0 902.8 -0.2 48
2017-09-14 22:00:00 19.9 6 Nordeste 20 Este 0 902.9 0.1 45
2017-09-14 21:00:00 20.2 4 Noroeste 9 Noroeste 0 902.8 -0.5 42
2017-09-14 20:00:00 22.5 8 Oeste 30 Noroeste 0 903 -0.6 38
2017-09-14 19:00:00 24.4 16 Oeste 33 Oeste 0 902.8 -1.3 35
2017-09-14 18:00:00 24.9 16 Oeste 35 Oeste 0 903.3 -1.8 34
2017-09-14 17:00:00 26.3 10 Sudoeste 23 Oeste 0 903.6 -2.1 31
2017-09-14 16:00:00 27.1 7 Sudeste 23 Sudoeste 0 904.1 -2.4 32
2017-09-14 15:00:00 26.2 4 Nordeste 18 Sudeste 0 905.1 -1.9 33
2017-09-14 14:00:00 25.6 8 Sudeste 24 Este 0 905.7 -1.1 34
2017-09-14 13:00:00 24.6 5 Sudeste 16 Sur 0 906.5 0.2 37
2017-09-14 12:00:00 22.9 7 Sur 17 Sudeste 0 907 1 39
2017-09-14 11:00:00 21.4 9 Sur 15 Sudeste 0 906.8 0.8 39
2017-09-14 10:00:00 21.1 3 Sur 25 Sudeste 0 906.3 0.2 40
2017-09-14 09:00:00 18.6 3 Sudoeste 12 Este 0 906 -0.1 42
2017-09-14 08:00:00 16.2 0 Calma 15 Este 0 906 0 44
2017-09-14 07:00:00 17.4 3 Sudeste 7 Sudeste 0 906.1 -0.1 42
2017-09-14 06:00:00 17.4 4 Oeste 7 Oeste 0 906.1 -0.1 42
2017-09-14 05:00:00 18 3 Sudeste 10 Sudoeste 0 906 -0.7 40
2017-09-14 04:00:00 18.5 3 Oeste 9 Noroeste 0 906.2 -0.9 38
2017-09-14 03:00:00 19.2 5 Noroeste 11 Oeste 0 906.2 -0.9 39
2017-09-14 02:00:00 19.9 5 Noroeste 10 Noroeste 0 906.7 -0.6 38
2017-09-14 01:00:00 20.3 6 Noroeste 14 Noroeste 0 907.1 -0.4 39
2017-09-14 00:00:00 20.3 6 Noroeste 27 Sudeste 0 907.1 0 38
2017-09-13 23:00:00 21.3 4 Noroeste 33 Este 0 907.3 0.2 37
2017-09-13 22:00:00 21.1 4 Noroeste 10 Oeste 0 907.5 0.1 36
2017-09-13 21:00:00 23 7 Sudoeste 17 Sudoeste 0 907.1 -0.4 33
2017-09-13 20:00:00 24.7 10 Sudoeste 24 Sur 0 907.1 -0.8 32
2017-09-13 19:00:00 26.2 11 Sudoeste 27 Sudoeste 0 907.4 -1.1 32
2017-09-13 18:00:00 26.5 12 Sudoeste 31 Sudoeste 0 907.5 -1.7 32
2017-09-13 17:00:00 26.7 14 Sur 29 Sudoeste 0 907.9 -1.9 32
2017-09-13 16:00:00 26.6 7 Sudoeste 22 Sudoeste 0 908.5 -1.8 33
2017-09-13 15:00:00 25.8 11 Sudoeste 24 Sudoeste 0 909.2 -1.3 34
2017-09-13 14:00:00 24.7 8 Sur 22 Sudeste 0 909.8 -0.7 36
2017-09-13 13:00:00 23.6 9 Sur 19 Sudeste 0 910.3 0.1 37
2017-09-13 12:00:00 22.4 7 Sur 15 Sudoeste 0 910.5 0.5 39
2017-09-13 11:00:00 21.1 4 Sudoeste 13 Oeste 0 910.5 1.1 42
2017-09-13 10:00:00 19.5 2 Sudoeste 6 Sur 0 910.2 1.5 46
2017-09-13 09:00:00 16.1 0 Calma 5 Oeste 0 910 1.5 51
2017-09-13 08:00:00 14.9 4 Oeste 6 Oeste 0 909.4 0.6 52
2017-09-13 07:00:00 14.6 4 Noroeste 8 Norte 0 908.7 -0.3 53
2017-09-13 06:00:00 14.9 5 Noroeste 9 Noroeste 0 908.5 -0.4 53
2017-09-13 05:00:00 14.6 5 Noroeste 9 Norte 0 908.8 -0.2 53
2017-09-13 04:00:00 15.3 3 Oeste 8 Sur 0 909 0.2 50
2017-09-13 03:00:00 16.4 5 Sur 9 Sur 0 908.9 0.3 47
2017-09-13 02:00:00 16.5 0 Calma 9 Noroeste 0 909 0.6 45
2017-09-13 01:00:00 16.8 5 Noroeste 8 Norte 0 908.8 0.7 45
2017-09-13 00:00:00 16.9 5 Noroeste 7 Noroeste 0 908.6 1.1 45
2017-09-12 23:00:00 17.6 5 Norte 15 Nordeste 0 908.4 1.7 44
2017-09-12 22:00:00 18.2 0 Calma 12 Nordeste 0 908.1 1.9 42
2017-09-12 21:00:00 19.6 3 Nordeste 30 Sur 0 907.5 1.4 39
2017-09-12 20:00:00 22.1 3 Oeste 19 Sudoeste 0 906.7 0.7 36
2017-09-12 19:00:00 23.6 8 Sudoeste 22 Sur 0 906.2 0.1 34
2017-09-12 18:00:00 23.7 9 Sur 19 Sudeste 0 906.1 0 34
2017-09-12 17:00:00 23.6 7 Sudeste 22 Sudeste 0 906 -0.3 35
2017-09-12 16:00:00 23.3 5 Sudeste 32 Sudeste 0 906.1 -0.2 36
2017-09-12 15:00:00 23.1 8 Este 22 Este 0 906.1 -0.1 35
2017-09-12 14:00:00 22.2 4 Sudeste 18 Sudeste 0 906.3 0.9 39
2017-09-12 13:00:00 20.6 6 Sur 21 Sudeste 0 906.3 1.3 44
2017-09-12 12:00:00 18.9 5 Sur 23 Este 0 906.2 1.9 49
2017-09-12 11:00:00 18.4 9 Sur 17 Sur 0 905.4 1.8 53
2017-09-12 10:00:00 14.9 6 Este 14 Este 0 905 1.8 59
2017-09-12 09:00:00 14.1 4 Este 10 Sur 0 904.3 1.4 60
2017-09-12 08:00:00 13.8 4 Sur 9 Sudoeste 0 903.6 0.6 60
2017-09-12 07:00:00 14 4 Sur 7 Sur 0 903.2 0.1 58
2017-09-12 06:00:00 14.4 5 Este 13 Oeste 0 902.9 -0.1 57
2017-09-12 05:00:00 14.9 7 Oeste 14 Oeste 0 903 0.2 53
2017-09-12 04:00:00 15.2 3 Oeste 12 Oeste 0 903.1 0.1 51
2017-09-12 03:00:00 16.1 4 Norte 15 Norte 0 903 0.2 48
2017-09-12 02:00:00 16.8 4 Nordeste 14 Norte 0 902.8 0.6 45
2017-09-12 01:00:00 18.1 6 Noroeste 28 Oeste 0 903 0.8 43
2017-09-12 00:00:00 19.6 15 Oeste 37 Oeste 0 902.8 1.1 40
2017-09-11 23:00:00 20.3 18 Oeste 42 Oeste 0 902.2 0.8 39
2017-09-11 22:00:00 20.6 17 Oeste 33 Oeste 0 902.2 0.8 39
2017-09-11 21:00:00 21 13 Oeste 32 Oeste 0 901.7 0.4 39
2017-09-11 20:00:00 22.8 14 Oeste 34 Oeste 0 901.4 0.2 39
2017-09-11 19:00:00 24.4 17 Oeste 41 Oeste 0 901.4 -0.6 37
2017-09-11 18:00:00 25.4 19 Oeste 40 Oeste 0 901.3 -1.1 36
2017-09-11 17:00:00 25.4 15 Oeste 36 Noroeste 0 901.2 -1.2 36
2017-09-11 16:00:00 25.2 14 Oeste 36 Oeste 0 902 -0.7 39
2017-09-11 15:00:00 25 11 Oeste 36 Oeste 0 902.4 -0.6 39
2017-09-11 14:00:00 24.4 17 Oeste 35 Oeste 0 902.4 -0.6 40
2017-09-11 13:00:00 24.1 12 Sudoeste 22 Sudoeste 0 902.7 0.1 41
2017-09-11 12:00:00 22.7 8 Sudeste 23 Sudeste 0 903 0.6 43
2017-09-11 11:00:00 21.2 5 Sudeste 14 Sur 0 903 0.6 46
2017-09-11 10:00:00 19.7 0 Calma 14 Nordeste 0 902.6 0.4 50
2017-09-11 09:00:00 15.9 3 Oeste 7 Noroeste 0 902.4 0.1 53
2017-09-11 08:00:00 14.8 2 Sudoeste 7 Oeste 0 902.4 0 56
2017-09-11 07:00:00 14.8 0 Calma 8 Oeste 0 902.2 -0.4 47
2017-09-11 06:00:00 15.1 4 Oeste 9 Noroeste 0 902.3 -0.7 47
2017-09-11 05:00:00 14.7 5 Noroeste 15 Norte 0 902.4 -0.8 45
2017-09-11 04:00:00 14.2 5 Norte 8 Norte 0 902.6 -0.8 44
2017-09-11 03:00:00 14.7 4 Noroeste 7 Noroeste 0 903 -0.4 43
2017-09-11 02:00:00 15.2 4 Nordeste 7 Norte 0 903.2 -0.2 41
2017-09-11 01:00:00 16 3 Sur 11 Sur 0 903.4 0.4 39
2017-09-11 00:00:00 16.4 5 Sur 9 Sur 0 903.4 0.6 39
2017-09-10 23:00:00 16.5 0 Calma 12 Nordeste 0 903.4 1.1 39
2017-09-10 22:00:00 16.9 2 Oeste 8 Oeste 0 903 1.2 37
2017-09-10 21:00:00 17.5 2 Sur 15 Sudeste 0 902.8 0.8 37
2017-09-10 20:00:00 18.8 6 Sudeste 28 Este 0 902.3 0.3 35
2017-09-10 19:00:00 20.2 6 Sudeste 18 Este 0 901.8 -0.5 33
2017-09-10 18:00:00 21 8 Sudeste 17 Sur 0 902 -0.8 33
2017-09-10 17:00:00 21.1 3 Sudoeste 19 Sudeste 0 902 -0.6 34
2017-09-10 16:00:00 20.1 4 Sudoeste 17 Sudeste 0 902.3 -0.2 34
2017-09-10 15:00:00 19.4 0 Calma 14 Sudoeste 0 902.8 0.1 35
2017-09-10 14:00:00 18.5 7 Sur 21 Sudeste 0 902.6 0.2 38
2017-09-10 13:00:00 17.9 8 Este 19 Este 0 902.5 0.6 38
2017-09-10 12:00:00 16.7 3 Norte 15 Nordeste 0 902.7 1.3 42
2017-09-10 11:00:00 14.9 3 Oeste 17 Noroeste 0 902.4 1.3 45
2017-09-10 10:00:00 13 6 Oeste 26 Norte 0 901.9 1.4 50
2017-09-10 09:00:00 10.9 16 Noroeste 36 Noroeste 0 901.4 1.4 53
2017-09-10 08:00:00 9.3 8 Noroeste 18 Norte 0 901.1 1.3 57
2017-09-10 07:00:00 9.8 8 Norte 22 Noroeste 0 900.5 1.1 54
2017-09-10 06:00:00 10.2 4 Norte 15 Noroeste 0 900 0.9 52
2017-09-10 05:00:00 10.8 5 Nordeste 24 Norte 0 899.8 0.9 50
2017-09-10 04:00:00 11.2 6 Norte 29 Noroeste 0 899.4 0.5 49
2017-09-10 03:00:00 11.6 9 Noroeste 21 Noroeste 0 899.1 0.6 49
2017-09-10 02:00:00 12.2 6 Sudoeste 25 Norte 0 898.9 0.9 50
2017-09-10 01:00:00 12.6 7 Este 27 Norte 0 898.9 1.3 50
2017-09-10 00:00:00 13.4 15 Norte 42 Noroeste 0 898.5 1.6 48
2017-09-09 23:00:00 14.3 17 Noroeste 43 Noroeste 0 898 1.2 42
2017-09-09 22:00:00 14.8 14 Noroeste 33 Noroeste 0 897.6 1.2 38
2017-09-09 21:00:00 15.3 13 Noroeste 36 Noroeste 0 896.9 0.6 37
2017-09-09 20:00:00 16.8 11 Noroeste 37 Oeste 0 896.8 0.3 36
2017-09-09 19:00:00 18.3 17 Oeste 44 Oeste 0 896.4 -0.2 33
2017-09-09 18:00:00 19.6 12 Noroeste 45 Sudoeste 0 896.3 -0.8 35
2017-09-09 17:00:00 19.7 17 Oeste 43 Oeste 0 896.5 -0.8 36
2017-09-09 16:00:00 18.9 18 Oeste 42 Oeste 0 896.6 -1.1 38
2017-09-09 15:00:00 19.4 13 Noroeste 40 Noroeste 0 897.1 -0.7 43
2017-09-09 14:00:00 17.5 9 Oeste 31 Noroeste 0 897.3 -0.3 48
2017-09-09 13:00:00 17.4 11 Noroeste 28 Noroeste 0 897.7 0.2 49
2017-09-09 12:00:00 16.2 4 Sudoeste 12 Sudoeste 0 897.8 0.8 55
2017-09-09 11:00:00 15.3 2 Sudoeste 22 Norte 0 897.6 0.7 58
2017-09-09 10:00:00 14.7 11 Noroeste 21 Noroeste 0 897.5 1 57
2017-09-09 09:00:00 14.7 10 Noroeste 32 Noroeste 0 897 0.4 57
2017-09-09 08:00:00 14.9 15 Norte 30 Norte 0 896.9 -0.2 53
2017-09-09 07:00:00 16.3 9 Noroeste 21 Oeste 0 896.5 -0.9 44
2017-09-09 06:00:00 16.8 15 Oeste 30 Oeste 0 896.6 -1.6 41
2017-09-09 05:00:00 18.1 13 Oeste 30 Oeste 0 897.1 -1.9 36
2017-09-09 04:00:00 17.4 12 Oeste 22 Oeste 0 897.4 -1.8 37
2017-09-09 03:00:00 18 11 Oeste 24 Oeste 0 898.2 -1.5 33
2017-09-09 02:00:00 18.9 12 Oeste 26 Oeste 0 899 -0.8 28
2017-09-09 01:00:00 19.3 10 Oeste 19 Oeste 0 899.2 -0.8 26
2017-09-09 00:00:00 19.4 7 Oeste 17 Noroeste 0 899.7 -0.2 26
2017-09-08 23:00:00 19.5 0 Calma 13 Oeste 0 899.8 0 26
2017-09-08 22:00:00 20.9 4 Oeste 14 Oeste 0 900 0.1 25
2017-09-08 21:00:00 23.1 8 Oeste 22 Oeste 0 899.9 -0.4 24
2017-09-08 20:00:00 25.1 7 Noroeste 23 Sudoeste 0 899.8 -0.9 24
2017-09-08 19:00:00 26.8 9 Sudoeste 27 Sudoeste 0 899.9 -1.4 25
2017-09-08 18:00:00 27.2 14 Sudoeste 31 Sudoeste 0 900.3 -1.9 25
2017-09-08 17:00:00 27.4 12 Sudoeste 28 Sudoeste 0 900.7 -2.2 25
2017-09-08 16:00:00 27.1 15 Sudoeste 33 Sur 0 901.3 -2.1 25
2017-09-08 15:00:00 26.3 12 Sudoeste 28 Sudeste 0 902.2 -1.7 27
2017-09-08 14:00:00 25 14 Sur 23 Sur 0 902.9 -1.2 27
2017-09-08 13:00:00 24.4 10 Sur 22 Sur 0 903.4 -0.8 29
2017-09-08 12:00:00 23.1 7 Sur 26 Este 0 903.9 -0.1 30
2017-09-08 11:00:00 21.9 0 Calma 8 Oeste 0 904.1 0.2 31
2017-09-08 10:00:00 18.8 0 Calma 8 Noroeste 0 904.2 0.2 37
2017-09-08 09:00:00 16.2 4 Noroeste 6 Norte 0 904 -0.2 37
2017-09-08 08:00:00 15.5 5 Norte 8 Norte 0 903.9 -0.7 37
2017-09-08 07:00:00 14.8 5 Noroeste 7 Norte 0 904 -0.8 37
2017-09-08 06:00:00 15.8 4 Norte 10 Nordeste 0 904.2 -0.9 36
2017-09-08 05:00:00 15.9 5 Norte 10 Norte 0 904.6 -0.6 32
2017-09-08 04:00:00 15.9 6 Norte 9 Noroeste 0 904.8 -0.5 32
2017-09-08 03:00:00 16.5 2 Este 7 Este 0 905.1 -0.2 32
2017-09-08 02:00:00 17.3 5 Este 9 Este 0 905.2 -0.1 29
2017-09-08 01:00:00 18.7 5 Oeste 10 Norte 0 905.3 0.2 28
2017-09-08 00:00:00 19.4 5 Norte 18 Nordeste 0 905.3 0.5 27
2017-09-07 23:00:00 20 6 Nordeste 22 Nordeste 0 905.3 0.5 27
2017-09-07 22:00:00 20.4 7 Nordeste 21 Nordeste 0 905.1 0.6 27
2017-09-07 21:00:00 21.3 7 Nordeste 21 Nordeste 0 904.8 0.1 26
2017-09-07 20:00:00 23.6 7 Norte 22 Norte 0 904.8 -0.3 24
2017-09-07 19:00:00 26 7 Nordeste 21 Nordeste 0 904.5 -1.1 23
2017-09-07 18:00:00 26.9 6 Sudeste 19 Este 0 904.7 -1.3 22
2017-09-07 17:00:00 27.4 6 Nordeste 21 Nordeste 0 905.1 -1.2 21
2017-09-07 16:00:00 27.5 7 Nordeste 22 Este 0 905.6 -1.1 22
2017-09-07 15:00:00 26.8 10 Este 24 Este 0 906 -1.1 23
2017-09-07 14:00:00 25.7 9 Este 21 Este 0 906.3 -0.6 27
2017-09-07 13:00:00 24.6 7 Sudeste 23 Este 0 906.7 0 34
2017-09-07 12:00:00 22.8 3 Este 17 Sudeste 0 907.1 0.9 39
2017-09-07 11:00:00 21.6 3 Sudeste 9 Sudoeste 0 906.9 0.5 42
2017-09-07 10:00:00 17.8 4 Noroeste 10 Noroeste 0 906.7 0.6 52
2017-09-07 09:00:00 16.1 5 Oeste 9 Oeste 0 906.2 0.1 55
2017-09-07 08:00:00 14.6 3 Sur 8 Oeste 0 906.4 0.1 59
2017-09-07 07:00:00 15.1 5 Sudoeste 7 Sudoeste 0 906.1 -0.7 57
2017-09-07 06:00:00 15.6 3 Noroeste 8 Este 0 906.1 -1.1 62
2017-09-07 05:00:00 16.9 3 Este 10 Sudeste 0 906.3 -1.3 57
2017-09-07 04:00:00 18.1 0 Calma 16 Norte 0 906.8 -1 50
2017-09-07 03:00:00 19.1 8 Norte 17 Norte 0 907.2 -0.4 50
2017-09-07 02:00:00 19.5 8 Nordeste 24 Nordeste 0 907.6 0.3 49
2017-09-07 01:00:00 20.4 9 Nordeste 32 Nordeste 0 907.8 0.8 48
2017-09-07 00:00:00 20.9 23 Este 44 Este 0 907.6 1 48
2017-09-06 23:00:00 22.4 16 Nordeste 30 Nordeste 0 907.3 0.8 45
2017-09-06 22:00:00 22.4 9 Nordeste 24 Norte 0 907 0.6 45
2017-09-06 21:00:00 24 9 Nordeste 22 Norte 0 906.6 0.2 39
2017-09-06 20:00:00 26.7 8 Noroeste 21 Noroeste 0 906.5 -0.5 33
2017-09-06 19:00:00 28.4 6 Nordeste 20 Nordeste 0 906.4 -1.3 33
2017-09-06 18:00:00 27.7 6 Nordeste 15 Nordeste 0 906.4 -2 35
2017-09-06 17:00:00 29.7 4 Sur 14 Este 0 907 -1.9 33
2017-09-06 16:00:00 29.7 2 Sudoeste 20 Sudeste 0 907.7 -2 34
2017-09-06 15:00:00 28.5 3 Norte 17 Sur 0 908.4 -1.4 36
2017-09-06 14:00:00 27.6 5 Sudeste 28 Sudeste 0 908.9 -1 39
2017-09-06 13:00:00 26.3 9 Este 26 Este 0 909.7 0.1 44
2017-09-06 12:00:00 24.5 12 Este 37 Este 0 909.8 0.5 47
2017-09-06 11:00:00 23 13 Este 22 Este 0 909.9 0.8 51
2017-09-06 10:00:00 21.9 8 Este 24 Nordeste 0 909.6 0.8 53
2017-09-06 09:00:00 20.6 14 Este 22 Este 0 909.3 0.6 55
2017-09-06 08:00:00 18.7 4 Nordeste 13 Norte 0 909.1 0.4 56
2017-09-06 07:00:00 18.2 3 Norte 11 Este 0 908.8 -0.3 56
2017-09-06 06:00:00 18.8 2 Norte 13 Nordeste 0 908.7 -0.5 53
2017-09-06 05:00:00 20.2 7 Nordeste 18 Nordeste 0 908.7 -0.6 51
2017-09-06 04:00:00 20.6 9 Nordeste 28 Nordeste 0 909.1 -0.3 51
2017-09-06 03:00:00 20.8 9 Nordeste 20 Nordeste 0 909.2 -0.4 49
2017-09-06 02:00:00 22 6 Norte 12 Norte 0 909.3 -0.2 42
2017-09-06 01:00:00 21.9 5 Norte 9 Norte 0 909.4 0.1 42
2017-09-06 00:00:00 22 5 Noroeste 27 Sudeste 0 909.6 0.9 44
2017-09-05 23:00:00 22.7 4 Noroeste 18 Sudeste 0 909.5 1 44
2017-09-05 22:00:00 24.1 3 Sudoeste 10 Sudeste 0 909.3 0.9 42
2017-09-05 21:00:00 25.1 4 Este 13 Sudoeste 0 908.7 0.4 41
2017-09-05 20:00:00 26.8 6 Sudoeste 15 Sur 0 908.5 0.1 38
2017-09-05 19:00:00 28.1 7 Sudoeste 19 Sudeste 0 908.4 -0.4 37
2017-09-05 18:00:00 28.1 9 Sur 21 Sur 0 908.3 -1 38
2017-09-05 17:00:00 28.3 6 Sur 23 Este 0 908.4 -1.2 39
2017-09-05 16:00:00 27.3 5 Sudoeste 20 Sudoeste 0 908.8 -1.5 41
2017-09-05 15:00:00 26.6 9 Sur 21 Sur 0 909.3 -1.1 43
2017-09-05 14:00:00 25.7 6 Sudeste 32 Este 0 909.6 -0.5 46
2017-09-05 13:00:00 24.1 6 Sur 17 Sudeste 0 910.3 0.6 49
2017-09-05 12:00:00 22.8 6 Sudeste 18 Este 0 910.4 1 55
2017-09-05 11:00:00 21.4 3 Sudoeste 17 Sudeste 0 910.1 1 61
2017-09-05 10:00:00 19.7 5 Sur 9 Sudeste 0 909.7 1 66
2017-09-05 09:00:00 18.5 2 Este 7 Nordeste 0 909.4 0.9 66
2017-09-05 08:00:00 16 3 Nordeste 7 Norte 0 909.1 0.8 66
2017-09-05 07:00:00 15.6 6 Norte 12 Este 0 908.7 0.4 62
2017-09-05 06:00:00 16.9 8 Este 13 Este 0 908.5 0.4 57
2017-09-05 05:00:00 17.8 6 Nordeste 12 Nordeste 0 908.3 0.3 54
2017-09-05 04:00:00 18 7 Nordeste 16 Norte 0 908.3 0.4 53
2017-09-05 03:00:00 18.2 8 Norte 20 Norte 0 908.1 0.4 51
2017-09-05 02:00:00 19.2 8 Norte 18 Norte 0 908 0.7 48
2017-09-05 01:00:00 19.8 6 Nordeste 18 Norte 0 907.9 1.1 46
2017-09-05 00:00:00 20.1 6 Nordeste 31 Este 0 907.7 1.7 45
2017-09-04 23:00:00 20.7 6 Nordeste 18 Este 0 907.3 1.9 45
2017-09-04 22:00:00 21.7 8 Nordeste 28 Este 0 906.8 1.7 43
2017-09-04 21:00:00 22 5 Nordeste 15 Nordeste 0 906 1.3 42
2017-09-04 20:00:00 23.9 9 Este 18 Este 0 905.4 0.6 39
2017-09-04 19:00:00 24.5 11 Sudeste 17 Este 0 905.1 0.4 38
2017-09-04 18:00:00 25.7 4 Este 21 Este 0 904.7 -0.1 38
2017-09-04 17:00:00 26.1 2 Sur 22 Sudeste 0 904.8 0 38
2017-09-04 16:00:00 24.8 5 Sudeste 24 Este 0 904.7 -0.2 40
2017-09-04 15:00:00 25.4 6 Este 21 Este 0 904.8 0.1 40
2017-09-04 14:00:00 24 6 Sur 19 Sudeste 0 904.8 0.6 40
2017-09-04 13:00:00 22.9 8 Sur 21 Sur 0 904.9 1.6 43
2017-09-04 12:00:00 21.1 11 Sur 24 Sur 0 904.7 1.8 46
2017-09-04 11:00:00 20 13 Sudeste 24 Sudeste 0 904.2 1.7 49
2017-09-04 10:00:00 19 15 Sudeste 23 Sudeste 0 903.3 1.3 49
2017-09-04 09:00:00 17.4 10 Este 14 Este 0 902.9 1.3 51
2017-09-04 08:00:00 15.7 7 Sudeste 13 Sudeste 0 902.5 0.8 51
2017-09-04 07:00:00 15.5 0 Calma 13 Este 0 902 0.5 43
2017-09-04 06:00:00 16.3 4 Este 14 Norte 0 901.6 0 42
2017-09-04 05:00:00 17.1 3 Nordeste 21 Oeste 0 901.7 0 45
2017-09-04 04:00:00 18.3 10 Oeste 27 Noroeste 0 901.5 -0.8 37
2017-09-04 03:00:00 19.8 15 Noroeste 34 Oeste 0 901.6 -0.7 32
2017-09-04 02:00:00 20.3 19 Oeste 32 Oeste 0 901.7 -0.8 29
2017-09-04 01:00:00 21.2 14 Oeste 30 Oeste 0 902.3 0 26
2017-09-04 00:00:00 20.5 7 Oeste 12 Oeste 0 902.3 0.5 26
2017-09-03 23:00:00 21.7 7 Oeste 14 Oeste 0 902.5 0.8 24
2017-09-03 22:00:00 22.8 6 Oeste 13 Oeste 0 902.3 0.5 23
2017-09-03 21:00:00 23.7 4 Noroeste 15 Oeste 0 901.8 -0.1 23
2017-09-03 20:00:00 26.5 9 Oeste 29 Oeste 0 901.7 -0.8 22
2017-09-03 19:00:00 28 14 Oeste 27 Oeste 0 901.8 -1.1 20
2017-09-03 18:00:00 28.8 10 Oeste 31 Oeste 0 901.9 -1.6 20
2017-09-03 17:00:00 28.3 13 Oeste 34 Oeste 0 902.5 -1.2 20
2017-09-03 16:00:00 27.6 16 Oeste 36 Sudoeste 0 902.9 -1.5 21
2017-09-03 15:00:00 27.5 14 Oeste 31 Oeste 0 903.5 -1.1 23
2017-09-03 14:00:00 26.4 13 Oeste 30 Sur 0 903.7 -1.3 24
2017-09-03 13:00:00 24.5 10 Sur 19 Sur 0 904.4 -0.8 30
2017-09-03 12:00:00 22.5 9 Sur 15 Sur 0 904.6 -0.8 32
2017-09-03 11:00:00 21 6 Sur 13 Sudeste 0 905 -0.3 33
2017-09-03 10:00:00 19.4 6 Este 9 Noroeste 0 905.2 -0.3 34
2017-09-03 09:00:00 16.8 4 Oeste 11 Sudoeste 0 905.4 0 38
2017-09-03 08:00:00 16.1 3 Sudoeste 7 Sudoeste 0 905.3 -0.4 35
2017-09-03 07:00:00 16.8 6 Sur 11 Sur 0 905.5 -0.7 35
2017-09-03 06:00:00 17.3 0 Calma 6 Sudeste 0 905.4 -1.3 33
2017-09-03 05:00:00 17.1 3 Este 8 Norte 0 905.7 -1.4 34
2017-09-03 04:00:00 16.2 5 Norte 8 Norte 0 906.2 -1.2 35
2017-09-03 03:00:00 16.1 4 Noroeste 8 Norte 0 906.7 -1.1 35
2017-09-03 02:00:00 16.8 0 Calma 5 Noroeste 0 907.1 -0.7 36
2017-09-03 01:00:00 16.5 0 Calma 9 Norte 0 907.4 -0.3 37
2017-09-03 00:00:00 16.9 3 Norte 6 Noroeste 0 907.8 0.5 35
2017-09-02 23:00:00 17.5 4 Noroeste 6 Noroeste 0 907.8 0.7 35
2017-09-02 22:00:00 18.8 4 Noroeste 10 Sudoeste 0 907.7 0.6 32
2017-09-02 21:00:00 20.7 6 Sudoeste 15 Sudoeste 0 907.3 -0.1 30
2017-09-02 20:00:00 22.7 9 Sudoeste 19 Sudoeste 0 907.1 -0.8 30
2017-09-02 19:00:00 24 10 Sur 19 Sur 0 907.1 -1.3 28
2017-09-02 18:00:00 24.2 8 Sur 17 Sur 0 907.4 -1.6 28
2017-09-02 17:00:00 24 7 Sur 19 Sudeste 0 907.9 -1.6 28
2017-09-02 16:00:00 22.7 9 Sur 21 Sudeste 0 908.4 -1.6 30
2017-09-02 15:00:00 21.9 8 Sur 18 Sur 0 909 -1.2 30
2017-09-02 14:00:00 20.5 5 Sudoeste 16 Sudeste 0 909.5 -1 37
2017-09-02 13:00:00 19.3 4 Sudoeste 14 Sur 0 910 -0.4 41
2017-09-02 12:00:00 17.7 0 Calma 13 Sudoeste 0 910.2 0.1 47
2017-09-02 11:00:00 15.2 3 Norte 20 Nordeste 0 910.5 0.9 55
2017-09-02 10:00:00 12.4 4 Noroeste 9 Noroeste 0 910.4 1.2 67
2017-09-02 09:00:00 10.5 0 Calma 13 Nordeste 0 910.1 0.9 70
2017-09-02 08:00:00 8.5 2 Nordeste 6 Nordeste 0 909.6 0.4 76
2017-09-02 07:00:00 8.5 0 Calma 8 Oeste 0 909.2 0.3 77
2017-09-02 06:00:00 9.2 4 Oeste 12 Este 0 909.2 0.6 71
2017-09-02 05:00:00 10.6 0 Calma 26 Este 0 909.2 0.7 63
2017-09-02 04:00:00 11.9 10 Este 27 Nordeste 0 908.9 0.7 52
2017-09-02 03:00:00 13.7 11 Nordeste 34 Nordeste 0 908.6 0.7 42
2017-09-02 02:00:00 14.3 10 Nordeste 30 Norte 0 908.5 1.1 41
2017-09-02 01:00:00 14.9 11 Nordeste 36 Nordeste 0 908.2 1.3 41
2017-09-02 00:00:00 15.6 10 Nordeste 32 Nordeste 0 907.9 1.8 39
2017-09-01 23:00:00 16.2 10 Norte 31 Norte 0 907.4 1.8 39
2017-09-01 22:00:00 16.4 12 Nordeste 32 Nordeste 0 906.9 1.8 39
2017-09-01 21:00:00 18.1 11 Nordeste 35 Nordeste 0 906.1 0.9 37
2017-09-01 20:00:00 21.3 9 Nordeste 25 Nordeste 0 905.6 0.5 31
2017-09-01 19:00:00 23.5 10 Nordeste 28 Norte 0 905.1 -0.5 28
2017-09-01 18:00:00 24.6 10 Este 22 Nordeste 0 905.2 -1 31
2017-09-01 17:00:00 24.3 6 Norte 17 Norte 0 905.1 -1.5 33
2017-09-01 16:00:00 23.7 6 Sudeste 17 Norte 0 905.6 -1.4 35
2017-09-01 15:00:00 23.8 8 Este 18 Este 0 906.2 -1.2 36
2017-09-01 14:00:00 23 3 Sudeste 22 Sudeste 0 906.6 -0.7 39
2017-09-01 13:00:00 21.7 6 Este 37 Sudeste 0 907 0 42
2017-09-01 12:00:00 20.8 10 Este 26 Sudeste 0 907.4 0.7 46
2017-09-01 11:00:00 18.7 11 Este 24 Este 0 907.3 1.1 55
2017-09-01 10:00:00 16.6 15 Este 27 Este 0 907 0.8 62
2017-09-01 09:00:00 15.8 4 Nordeste 24 Este 0 906.7 0.9 65
2017-09-01 08:00:00 14.5 13 Nordeste 25 Este 0 906.2 0.5 70
2017-09-01 07:00:00 14.7 4 Este 18 Nordeste 0 906.2 0.3 69
2017-09-01 06:00:00 14.7 12 Nordeste 22 Nordeste 0 905.8 -0.3 69
2017-09-01 05:00:00 13.9 0 Calma 9 Noroeste 0 905.7 -0.4 70
2017-09-01 04:00:00 15.3 3 Norte 23 Este 0 905.9 0 62
2017-09-01 03:00:00 16.1 6 Nordeste 22 Este 0 906.1 0.2 60
2017-09-01 02:00:00 16.7 5 Nordeste 26 Nordeste 0 906.1 0.4 57
2017-09-01 01:00:00 17.2 15 Nordeste 26 Nordeste 0 905.9 0.5 53
2017-09-01 00:00:00 18.3 4 Sudeste 26 Este 0 905.9 1.1 51
2017-08-31 23:00:00 18.9 4 Nordeste 16 Nordeste 0 905.7 1.1 50
2017-08-31 22:00:00 19.2 5 Nordeste 19 Norte 0 905.4 1.1 49
2017-08-31 21:00:00 20.2 7 Nordeste 18 Nordeste 0 904.8 0.2 47
2017-08-31 20:00:00 22.1 5 Nordeste 13 Nordeste 0 904.6 -0.1 42
2017-08-31 19:00:00 22.9 5 Norte 11 Norte 0 904.3 -0.7 42
2017-08-31 18:00:00 23.2 5 Nordeste 21 Nordeste 0 904.6 -0.6 44
2017-08-31 17:00:00 21.6 5 Nordeste 15 Nordeste 0 904.7 -1 48
2017-08-31 16:00:00 22 6 Sur 20 Sudoeste 0 905 -1.3 42
2017-08-31 15:00:00 22.4 9 Sur 17 Sur 0 905.2 -1.3 45
2017-08-31 14:00:00 21.9 5 Este 11 Nordeste 0 905.7 -0.7 50
2017-08-31 13:00:00 19.5 3 Noroeste 17 Este 0 906.3 0.4 56
2017-08-31 12:00:00 18.1 3 Sudeste 15 Sudeste 0 906.5 1 64
2017-08-31 11:00:00 18.9 6 Este 17 Este 0 906.4 1.5 65
2017-08-31 10:00:00 17.3 10 Este 15 Este 0.1 905.9 1.6 74
2017-08-31 09:00:00 14.5 0 Calma 9 Este 0 905.5 1.5 88
2017-08-31 08:00:00 14.3 6 Este 13 Este 0 904.9 0.9 85
2017-08-31 07:00:00 14.4 6 Este 10 Este 0 904.3 0.8 85
2017-08-31 06:00:00 15 3 Sur 6 Sur 0 904 0.6 77
2017-08-31 05:00:00 14.9 0 Calma 14 Sudeste 0 904 0.2 79
2017-08-31 04:00:00 15.5 4 Sudeste 20 Nordeste 0 903.5 -0.4 76
2017-08-31 03:00:00 15.5 8 Nordeste 31 Nordeste 0 903.4 -0.4 74
2017-08-31 02:00:00 14.6 14 Norte 27 Norte 0.5 903.8 0 81
2017-08-31 01:00:00 15.7 13 Norte 26 Noroeste 0 903.9 0.5 73
2017-08-31 00:00:00 17.5 9 Oeste 20 Oeste 0 903.8 1 54
2017-08-30 23:00:00 17.6 4 Oeste 9 Oeste 0 903.8 1.1 49
2017-08-30 22:00:00 18.1 5 Sudoeste 13 Sudoeste 0 903.4 0.8 47
2017-08-30 21:00:00 18.7 6 Sudoeste 18 Sudoeste 0 902.8 0.4 44
2017-08-30 20:00:00 19.8 9 Sudoeste 18 Sudoeste 0 902.7 0.3 41
2017-08-30 19:00:00 19.7 0 Calma 21 Sudoeste 0 902.6 0 44
2017-08-30 18:00:00 20.6 13 Sudoeste 27 Sudoeste 0 902.4 -0.7 36
2017-08-30 17:00:00 23 13 Sur 30 Sudoeste 0 902.4 -1.3 35
2017-08-30 16:00:00 22.8 8 Sudoeste 32 Sudoeste 0 902.6 -1.4 39
2017-08-30 15:00:00 21.2 13 Sur 26 Sur 0 903.1 -1 42
2017-08-30 14:00:00 20.2 10 Sur 23 Sur 0 903.7 -0.3 49
2017-08-30 13:00:00 20.7 10 Sur 22 Sudeste 0 904 0.2 55
2017-08-30 12:00:00 19.1 4 Este 10 Este 0 904.1 0.1 62
2017-08-30 11:00:00 17.5 2 Nordeste 13 Este 0 904 0.6 70
2017-08-30 10:00:00 15.6 3 Oeste 9 Oeste 0 903.8 0.8 82
2017-08-30 09:00:00 14.5 0 Calma 8 Este 0 904 1 87
2017-08-30 08:00:00 14.2 5 Este 9 Este 0 903.4 0.8 88
2017-08-30 07:00:00 14.4 9 Este 13 Sudeste 0 903 0 87
2017-08-30 06:00:00 14.5 6 Este 9 Nordeste 0 903 -0.4 88
2017-08-30 05:00:00 14.7 3 Nordeste 8 Nordeste 0 902.6 -0.6 85
2017-08-30 04:00:00 14.9 4 Nordeste 9 Nordeste 0 903 -0.1 85
2017-08-30 03:00:00 14.9 6 Este 15 Este 0 903.4 0.4 84
2017-08-30 02:00:00 15.4 6 Nordeste 10 Este 0 903.2 0.4 76
2017-08-30 01:00:00 15.4 4 Nordeste 13 Este 0 903.1 1.4 68
2017-08-30 00:00:00 16.8 6 Este 24 Nordeste 0 903 1.5 60
2017-08-29 23:00:00 17.4 10 Este 39 Sudeste 0 902.8 1.3 52
2017-08-29 22:00:00 17.1 5 Nordeste 22 Este 0 901.7 0.2 51
2017-08-29 21:00:00 16.9 2 Nordeste 21 Norte 0 901.5 0.4 54
2017-08-29 20:00:00 17.5 7 Norte 24 Nordeste 0 901.5 0.4 56
2017-08-29 19:00:00 19.5 8 Sur 18 Sudoeste 0 901.5 0 45
2017-08-29 18:00:00 20.1 9 Sudoeste 16 Sudoeste 0 901.1 -1 49
2017-08-29 17:00:00 22.2 3 Sur 13 Sudoeste 0 901.1 -1.5 42
2017-08-29 16:00:00 21.4 3 Noroeste 8 Sudeste 0 901.5 -1.4 51
2017-08-29 15:00:00 19.7 4 Este 18 Sudeste 0 902.1 -1.2 56
2017-08-29 14:00:00 20.4 8 Sudeste 18 Sudeste 0 902.6 -0.7 53
2017-08-29 13:00:00 19.8 2 Norte 14 Nordeste 0 902.9 -0.1 60
2017-08-29 12:00:00 18.7 6 Este 15 Este 0 903.3 0.4 67
2017-08-29 11:00:00 17.1 7 Este 17 Sudeste 0 903.3 0.8 73
2017-08-29 10:00:00 16.5 3 Nordeste 14 Nordeste 0 903 0.9 79
2017-08-29 09:00:00 14.7 5 Nordeste 10 Norte 0 902.9 0.4 88
2017-08-29 08:00:00 13.4 3 Nordeste 15 Este 0 902.5 -0.1 92
2017-08-29 07:00:00 13.4 9 Este 13 Nordeste 0 902.1 -0.9 92
2017-08-29 06:00:00 14 5 Este 10 Nordeste 0 902.5 -0.4 91
2017-08-29 05:00:00 13.9 3 Norte 8 Norte 0 902.6 -0.9 94
2017-08-29 04:00:00 13.7 4 Este 18 Nordeste 0 903 -1.1 95
2017-08-29 03:00:00 13.4 8 Norte 20 Norte 0 902.9 -0.9 99
2017-08-29 02:00:00 13.6 16 Nordeste 27 Este 0 903.5 -0.1 98
2017-08-29 01:00:00 14.2 9 Este 16 Nordeste 0 904.1 0.2 91
2017-08-29 00:00:00 15 11 Nordeste 36 Este 0 903.8 0.2 85
2017-08-28 23:00:00 14.4 6 Nordeste 35 Este 0 903.6 -0.4 94
2017-08-28 22:00:00 14.5 13 Nordeste 18 Este 0 903.9 0.4 95
2017-08-28 21:00:00 15.1 7 Nordeste 24 Este 0.2 903.6 0 96
2017-08-28 20:00:00 15.2 3 Oeste 14 Nordeste 1.1 904 0.8 98
2017-08-28 19:00:00 15.7 2 Sur 9 Sur 0.1 903.5 0 95
2017-08-28 18:00:00 15.2 4 Este 26 Sur 3.6 903.6 -1 95
2017-08-28 17:00:00 16.7 5 Oeste 15 Oeste 0 903.2 -0.6 83
2017-08-28 16:00:00 15.7 12 Oeste 34 Oeste 1.2 903.5 -0.5 91
2017-08-28 15:00:00 13.8 21 Oeste 44 Oeste 3.8 904.6 0.8 97
2017-08-28 14:00:00 16.1 10 Oeste 32 Oeste 0 903.8 -0.5 91
2017-08-28 13:00:00 17.1 3 Norte 17 Norte 0.1 904 0.3 92
2017-08-28 12:00:00 16.8 5 Norte 22 Nordeste 0.8 903.8 0.1 90
2017-08-28 11:00:00 17.1 7 Norte 15 Nordeste 0 904.3 0.9 83
2017-08-28 10:00:00 18.2 5 Nordeste 17 Este 0 903.7 0.1 79
2017-08-28 09:00:00 16 5 Nordeste 18 Nordeste 0 903.7 1 88
2017-08-28 08:00:00 15.3 7 Norte 15 Nordeste 0 903.4 -0.3 90
2017-08-28 07:00:00 15.5 6 Nordeste 24 Este 2.6 903.6 -0.1 87
2017-08-28 06:00:00 17.6 5 Nordeste 14 Este 0 902.7 -0.8 65
2017-08-28 05:00:00 18 8 Este 15 Este 0 903.7 0 62
2017-08-28 04:00:00 18.3 10 Este 22 Este 0 903.7 0.1 60
2017-08-28 03:00:00 19 9 Este 18 Este 0 903.5 -0.2 60
2017-08-28 02:00:00 18.9 8 Nordeste 18 Norte 0 903.7 -0.4 60
2017-08-28 01:00:00 18.5 5 Nordeste 18 Nordeste 0 903.6 -0.1 63
2017-08-28 00:00:00 18.6 6 Nordeste 21 Nordeste 0 903.7 0.2 64
2017-08-27 23:00:00 18.8 14 Nordeste 21 Nordeste 0 904.1 0.7 63
2017-08-27 22:00:00 18.7 13 Nordeste 24 Este 0 903.7 0.6 63
2017-08-27 21:00:00 20.1 19 Este 28 Sudeste 0 903.5 -0.4 58
2017-08-27 20:00:00 21.4 17 Sudeste 33 Sudeste 0 903.4 -1.5 54
2017-08-27 19:00:00 21.7 22 Sudeste 34 Sudeste 0 903.1 -1.4 52
2017-08-27 18:00:00 22.5 16 Este 27 Este 0 903.9 -1 55
2017-08-27 17:00:00 21.8 13 Sudeste 26 Sudeste 0 904.9 -0.5 56
2017-08-27 16:00:00 21.6 4 Este 13 Sudeste 0 904.5 -1.7 53
2017-08-27 15:00:00 20.3 3 Sudoeste 13 Sur 0 904.9 -0.3 57
2017-08-27 14:00:00 18.9 3 Sudeste 14 Oeste 0 905.4 0.8 69
2017-08-27 13:00:00 16.5 9 Oeste 31 Oeste 1.8 906.2 2.2 84
2017-08-27 12:00:00 20.4 3 Nordeste 17 Este 0 905.2 1.5 67
2017-08-27 11:00:00 19.6 14 Nordeste 22 Este 0.1 904.6 0.8 66
2017-08-27 10:00:00 20 11 Este 20 Este 0 904 -0.7 66
2017-08-27 09:00:00 18.5 6 Norte 30 Norte 0 903.7 -0.4 67
2017-08-27 08:00:00 17.7 7 Norte 33 Nordeste 0.5 903.8 -0.5 68
2017-08-27 07:00:00 19.4 0 Calma 13 Nordeste 0 904.7 0.6 51
2017-08-27 06:00:00 20.7 0 Calma 8 Nordeste 0 904.1 -0.1 43
2017-08-27 05:00:00 20.6 0 Calma 13 Este 0 904.3 0.1 41
2017-08-27 04:00:00 21.9 6 Nordeste 21 Este 0 904.1 -0.4 38
2017-08-27 03:00:00 21.7 10 Nordeste 18 Este 0 904.2 -0.3 38
2017-08-27 02:00:00 21.6 7 Nordeste 14 Nordeste 0 904.2 -0.5 38
2017-08-27 01:00:00 22.1 6 Nordeste 22 Este 0 904.5 0.1 37
2017-08-27 00:00:00 22.9 17 Este 31 Este 0 904.5 0.2 35
2017-08-26 23:00:00 23.2 14 Este 19 Nordeste 0 904.7 0.7 35
2017-08-26 22:00:00 23.1 6 Este 10 Este 0 904.4 0 35
2017-08-26 21:00:00 23.8 6 Este 9 Este 0 904.3 -0.3 35
2017-08-26 20:00:00 24.6 4 Norte 14 Sudoeste 0 904 -0.9 34
2017-08-26 19:00:00 25.7 10 Sudoeste 21 Sudoeste 0 904.4 -0.9 33
2017-08-26 18:00:00 25.4 9 Sudoeste 31 Oeste 0 904.6 -0.5 32
2017-08-26 17:00:00 25.7 18 Oeste 42 Sudoeste 0 904.9 -0.2 32
2017-08-26 16:00:00 26.6 12 Sudoeste 24 Sudoeste 0 905.3 0.1 32
2017-08-26 15:00:00 26.3 12 Sur 23 Sur 0 905.1 -0.1 33
2017-08-26 14:00:00 26 7 Sur 19 Sudeste 0 905.1 0.4 33
2017-08-26 13:00:00 25.1 5 Sur 16 Sudoeste 0 905.2 0.6 34
2017-08-26 12:00:00 25.7 4 Sudeste 15 Sudeste 0 905.2 1 35
2017-08-26 11:00:00 25.5 7 Sudeste 17 Este 0 904.7 0.7 36
2017-08-26 10:00:00 24.2 5 Sudeste 9 Sudeste 0 904.6 1.1 38
2017-08-26 09:00:00 21.4 2 Sudeste 6 Sudeste 0 904.2 0.8 37
2017-08-26 08:00:00 19.9 4 Este 6 Sudeste 0 904 0.6 37
2017-08-26 07:00:00 19.9 4 Nordeste 6 Nordeste 0 903.5 0.1 37
2017-08-26 06:00:00 20.2 0 Calma 6 Este 0 903.4 -0.4 37
2017-08-26 05:00:00 21 0 Calma 8 Oeste 0 903.4 -0.7 35
2017-08-26 04:00:00 21.1 4 Sur 8 Oeste 0 903.4 -0.6 35
2017-08-26 03:00:00 20.9 4 Noroeste 10 Sudeste 0 903.8 -0.2 36
2017-08-26 02:00:00 21.9 6 Sudeste 17 Este 0 904.1 0.3 35
2017-08-26 01:00:00 22.7 4 Oeste 14 Oeste 0 904 0.5 34
2017-08-26 00:00:00 23.5 6 Oeste 13 Sudoeste 0 904 0.8 33
2017-08-25 23:00:00 24.1 5 Oeste 15 Sudoeste 0 903.8 0.8 32
2017-08-25 22:00:00 25.6 9 Sudoeste 18 Oeste 0 903.5 0.4 31
2017-08-25 21:00:00 26.3 9 Sudoeste 28 Sudoeste 0 903.2 -0.1 30
2017-08-25 20:00:00 28.3 16 Sudoeste 28 Sudoeste 0 903 -0.6 29
2017-08-25 19:00:00 29.8 15 Sudoeste 33 Sudoeste 0 903.1 -0.9 29
2017-08-25 18:00:00 29.3 15 Sudoeste 42 Sudoeste 0 903.3 -1.3 29
2017-08-25 17:00:00 29.5 15 Sudoeste 42 Sudoeste 0 903.6 -1.3 29
2017-08-25 16:00:00 29.4 18 Sudoeste 38 Sudoeste 0 904 -1.1 29
2017-08-25 15:00:00 29.4 15 Sudoeste 37 Sudoeste 0 904.6 -0.8 29
2017-08-25 14:00:00 28.4 13 Sudoeste 30 Sudoeste 0 904.9 -0.3 30
2017-08-25 13:00:00 27.4 9 Sudoeste 27 Sur 0 905.1 0.1 31
2017-08-25 12:00:00 25.8 9 Sudoeste 36 Sur 0 905.4 0.5 32
2017-08-25 11:00:00 24.1 9 Sudeste 36 Sudeste 0 905.2 0.6 33
2017-08-25 10:00:00 23.4 3 Sur 6 Sur 0 905 0.5 34
2017-08-25 09:00:00 20.3 0 Calma 8 Noroeste 0 904.9 0.6 37
2017-08-25 08:00:00 18 3 Noroeste 8 Este 0 904.6 0.2 37
2017-08-25 07:00:00 19.7 6 Sudeste 8 Sudeste 0 904.5 -0.1 35
2017-08-25 06:00:00 19.8 7 Este 9 Sudeste 0 904.3 -0.2 34
2017-08-25 05:00:00 20.8 4 Sudeste 15 Sur 0 904.4 -0.3 33
2017-08-25 04:00:00 21.2 3 Sur 7 Sudoeste 0 904.6 -0.3 32
2017-08-25 03:00:00 22 5 Sudoeste 11 Oeste 0 904.5 -0.3 32
2017-08-25 02:00:00 21.4 6 Oeste 13 Oeste 0 904.7 -0.1 32
2017-08-25 01:00:00 21.8 6 Oeste 9 Oeste 0 904.9 0.4 32
2017-08-25 00:00:00 22.5 6 Oeste 11 Oeste 0 904.8 1 31
2017-08-24 23:00:00 23.2 6 Oeste 13 Sudoeste 0 904.8 1.3 30
2017-08-24 22:00:00 24.6 5 Oeste 23 Sudoeste 0 904.5 1.1 28
2017-08-24 21:00:00 26.2 10 Oeste 33 Sudoeste 0 903.8 0.2 27
2017-08-24 20:00:00 27.7 18 Sudoeste 40 Sudoeste 0 903.5 -0.4 28
2017-08-24 19:00:00 29.6 21 Sudoeste 38 Sudoeste 0 903.4 -0.8 27
2017-08-24 18:00:00 29.8 23 Sudoeste 41 Sudoeste 0 903.6 -1 27
2017-08-24 17:00:00 30.3 18 Sudoeste 42 Sudoeste 0 903.9 -0.9 28
2017-08-24 16:00:00 30.8 13 Sudoeste 34 Sudoeste 0 904.2 -1 30
2017-08-24 15:00:00 29.1 20 Sudoeste 41 Sudoeste 0 904.6 -0.8 31
2017-08-24 14:00:00 29 14 Sur 31 Sudoeste 0 904.8 -0.6 32
2017-08-24 13:00:00 27.8 7 Sur 24 Sur 0 905.2 0.1 37
2017-08-24 12:00:00 26.5 6 Sudeste 20 Este 0 905.4 0.5 39
2017-08-24 11:00:00 25.1 8 Sudeste 26 Sudeste 0 905.4 0.8 43
2017-08-24 10:00:00 23.9 5 Este 22 Este 0 905.1 0.8 45
2017-08-24 09:00:00 21.8 5 Este 12 Nordeste 0 904.9 0.7 49
2017-08-24 08:00:00 20.1 8 Este 15 Este 0 904.6 0.6 50
2017-08-24 07:00:00 20.5 6 Nordeste 20 Este 0 904.3 0.4 47
2017-08-24 06:00:00 21.1 13 Este 24 Este 0 904.2 0.2 47
2017-08-24 05:00:00 21.9 8 Nordeste 24 Este 0 904 0 48
2017-08-24 04:00:00 22.9 13 Nordeste 26 Este 0 903.9 0 47
2017-08-24 03:00:00 22.9 11 Nordeste 38 Este 0 904 0 47
2017-08-24 02:00:00 23.7 2 Nordeste 13 Este 0 904 0.3 36
2017-08-24 01:00:00 24.3 5 Noroeste 11 Oeste 0 903.9 0.3 35
2017-08-24 00:00:00 24.3 4 Norte 7 Noroeste 0 904 0.9 35
2017-08-23 23:00:00 25.4 4 Noroeste 11 Oeste 0 903.7 0.7 35
2017-08-23 22:00:00 26.7 5 Oeste 13 Sudoeste 0 903.6 0.1 32
2017-08-23 21:00:00 28.2 8 Sudoeste 19 Sudoeste 0 903.1 -0.4 30
2017-08-23 20:00:00 29.9 10 Sudoeste 26 Sudoeste 0 903 -1 30
2017-08-23 19:00:00 31.4 11 Sudoeste 27 Sudoeste 0 903.5 -0.8 30
2017-08-23 18:00:00 31.4 9 Sudoeste 26 Sudoeste 0 903.5 -1.2 29
2017-08-23 17:00:00 31.1 9 Sudoeste 31 Sur 0 904 -1.1 30
2017-08-23 16:00:00 32.2 10 Sudoeste 28 Sur 0 904.3 -1.3 30
2017-08-23 15:00:00 31.2 11 Sur 28 Sudoeste 0 904.7 -0.9 33
2017-08-23 14:00:00 30.8 9 Sur 27 Sudeste 0 905.1 -0.4 34
2017-08-23 13:00:00 29.7 8 Sur 38 Este 0 905.6 0.4 37
2017-08-23 12:00:00 28 6 Sur 18 Sudeste 0 905.6 0.6 39
2017-08-23 11:00:00 27.5 3 Este 13 Sudeste 0 905.5 0.9 39
2017-08-23 10:00:00 25.7 6 Este 14 Este 0 905.2 0.8 42
2017-08-23 09:00:00 23.7 6 Este 13 Este 0 905 0.7 43
2017-08-23 08:00:00 21.7 9 Este 13 Nordeste 0 904.6 0.4 41
2017-08-23 07:00:00 21.7 3 Noroeste 12 Sur 0 904.4 0.3 37
2017-08-23 06:00:00 23.5 2 Nordeste 19 Nordeste 0 904.3 0.2 36
2017-08-23 05:00:00 23.3 9 Norte 19 Norte 0 904.2 -0.1 36
2017-08-23 04:00:00 24.7 4 Sur 13 Norte 0 904.1 -0.3 33
2017-08-23 03:00:00 26.6 8 Norte 19 Noroeste 0 904.1 -0.3 32
2017-08-23 02:00:00 26.4 8 Norte 18 Noroeste 0 904.3 -0.2 32
2017-08-23 01:00:00 26.2 5 Norte 15 Norte 0 904.4 0.4 33
2017-08-23 00:00:00 26.4 8 Norte 17 Noroeste 0 904.4 0.7 35
2017-08-22 23:00:00 26.4 5 Oeste 11 Oeste 0 904.5 0.9 39
2017-08-22 22:00:00 27.4 4 Oeste 10 Oeste 0 904 0.1 37
2017-08-22 21:00:00 29 6 Sudoeste 17 Sudoeste 0 903.7 -0.4 33
2017-08-22 20:00:00 30.4 9 Sudoeste 24 Sur 0 903.6 -0.7 32
2017-08-22 19:00:00 32.3 8 Sur 27 Sur 0 903.9 -1.2 31
2017-08-22 18:00:00 32.9 12 Sur 35 Sur 0 904.1 -1.4 32
2017-08-22 17:00:00 33 11 Sudoeste 26 Sudoeste 0 904.3 -1.9 32
2017-08-22 16:00:00 32.5 13 Sudoeste 30 Sudeste 0 905.1 -1.6 33
2017-08-22 15:00:00 31.8 14 Sur 27 Sur 0 905.5 -1.3 37
2017-08-22 14:00:00 30.3 10 Sur 24 Este 0 906.2 -0.7 43
2017-08-22 13:00:00 29.4 7 Sudeste 21 Sudeste 0 906.7 -0.2 46
2017-08-22 12:00:00 27.5 6 Sudeste 20 Sudeste 0 906.8 0.1 50
2017-08-22 11:00:00 26 6 Este 23 Este 0 906.9 0.2 52
2017-08-22 10:00:00 24.3 5 Sudeste 20 Sudeste 0 906.9 0.4 55
2017-08-22 09:00:00 22.3 7 Este 10 Este 0 906.7 0.3 61
2017-08-22 08:00:00 20.4 3 Norte 8 Noroeste 0 906.7 0.1 62
2017-08-22 07:00:00 20.5 3 Este 9 Este 0 906.5 0 61
2017-08-22 06:00:00 20.8 7 Este 12 Este 0 906.4 -0.1 59
2017-08-22 05:00:00 21.6 8 Este 11 Este 0 906.6 0.3 53
2017-08-22 04:00:00 22.5 0 Calma 10 Sudoeste 0 906.5 0.7 52
2017-08-22 03:00:00 23.1 6 Sudoeste 22 Sudoeste 0 906.5 0.9 47
2017-08-22 02:00:00 24.5 9 Sudoeste 19 Sur 0 906.3 0.7 44
2017-08-22 01:00:00 25.6 8 Sur 15 Sur 0 905.8 0.5 39
2017-08-22 00:00:00 25.8 3 Noroeste 6 Noroeste 0 905.6 1 38